Time;durP1;ratioP1;P1;durP2;ratioP2;P2;SDS_P1;SDS_P2;PMS_P1;PMS_P2;Temp;Humidity;BMP_temperature;BMP_pressure;BME280_temperature;BME280_humidity;BME280_pressure;Samples;Min_cycle;Max_cycle;Signal;HPM_P1;HPM_P2
2022/03/07 00:01:25;;;;;;;17.13;10.63;;;;;;;1.16;54.58;96616.88;5071111;28;20051;-77
2022/03/07 00:03:53;;;;;;;18.77;11.13;;;;;;;1.12;54.71;96615.75;5071285;28;20052;-78
2022/03/07 00:06:19;;;;;;;18.25;11.13;;;;;;;1.06;55.21;96622.13;5071145;28;20415;-77
2022/03/07 00:08:46;;;;;;;18.20;10.95;;;;;;;0.95;55.48;96623.88;5070656;28;20699;-76
2022/03/07 00:11:13;;;;;;;19.63;11.32;;;;;;;0.94;55.95;96624.09;5070922;28;20064;-76
2022/03/07 00:13:39;;;;;;;18.40;10.98;;;;;;;0.77;56.19;96624.97;5070065;28;20056;-77
2022/03/07 00:16:06;;;;;;;19.25;11.75;;;;;;;0.85;56.48;96631.00;5070906;28;20435;-77
2022/03/07 00:18:33;;;;;;;21.38;11.65;;;;;;;0.85;56.99;96625.63;5069948;28;20037;-77
2022/03/07 00:21:01;;;;;;;27.05;13.63;;;;;;;0.82;57.04;96628.78;5071299;28;20681;-77
2022/03/07 00:23:27;;;;;;;32.25;13.65;;;;;;;0.88;57.15;96622.44;5070568;28;20036;-79
2022/03/07 00:25:54;;;;;;;41.63;14.45;;;;;;;0.95;57.04;96621.19;5070851;28;20052;-76
2022/03/07 00:28:20;;;;;;;26.98;13.00;;;;;;;1.00;57.03;96628.50;5070977;28;20381;-77
2022/03/07 00:30:47;;;;;;;22.75;13.20;;;;;;;1.03;56.80;96622.63;5071972;28;20044;-78
2022/03/07 00:33:15;;;;;;;28.23;12.45;;;;;;;1.01;57.17;96624.75;5074513;28;20056;-78
2022/03/07 00:35:42;;;;;;;22.48;13.77;;;;;;;0.95;57.67;96625.75;5071974;28;20072;-77
2022/03/07 00:38:10;;;;;;;26.27;13.27;;;;;;;0.95;57.38;96625.75;5071038;28;20048;-76
2022/03/07 00:40:37;;;;;;;33.47;14.18;;;;;;;0.91;57.52;96629.97;5070025;28;20102;-77
2022/03/07 00:43:07;;;;;;;25.63;13.13;;;;;;;0.95;57.74;96636.47;5070614;28;20659;-76
2022/03/07 00:45:33;;;;;;;29.55;13.45;;;;;;;0.99;57.65;96624.16;5070452;28;20036;-77
2022/03/07 00:48:00;;;;;;;39.97;14.07;;;;;;;0.93;58.05;96628.66;5070860;28;20722;-77
2022/03/07 00:50:27;;;;;;;21.52;13.80;;;;;;;0.87;58.41;96632.34;5070253;28;20047;-77
2022/03/07 00:52:53;;;;;;;24.98;14.02;;;;;;;0.82;58.74;96626.91;5070358;28;20411;-77
2022/03/07 00:55:21;;;;;;;23.58;13.20;;;;;;;0.82;59.05;96623.44;5070147;28;20135;-77
2022/03/07 00:57:47;;;;;;;21.20;13.45;;;;;;;0.80;59.34;96615.66;5069973;28;20045;-77
2022/03/07 01:00:14;;;;;;;21.40;13.25;;;;;;;0.88;59.43;96615.19;5070345;28;20056;-76
2022/03/07 01:02:41;;;;;;;23.08;14.38;;;;;;;0.90;58.98;96612.28;5069308;28;20446;-77
2022/03/07 01:05:08;;;;;;;24.02;14.38;;;;;;;0.71;60.30;96615.25;5070530;28;20057;-77
2022/03/07 01:07:35;;;;;;;20.92;14.05;;;;;;;0.55;60.69;96616.13;5069781;28;20053;-77
2022/03/07 01:10:01;;;;;;;48.25;15.88;;;;;;;0.56;60.96;96623.09;5070317;28;20041;-77
2022/03/07 01:12:29;;;;;;;23.98;14.63;;;;;;;0.64;60.62;96624.56;5068985;28;20532;-77
2022/03/07 01:14:56;;;;;;;28.98;15.38;;;;;;;0.63;60.85;96623.75;5069809;28;20141;-77
2022/03/07 01:17:22;;;;;;;29.60;15.90;;;;;;;0.63;61.06;96626.44;5069371;28;20045;-77
2022/03/07 01:19:49;;;;;;;25.45;14.82;;;;;;;0.50;61.17;96629.44;5069635;28;20063;-76
2022/03/07 01:22:15;;;;;;;25.90;15.07;;;;;;;0.49;61.01;96627.84;5070141;28;20691;-77
2022/03/07 01:24:42;;;;;;;28.00;14.07;;;;;;;0.53;61.17;96623.59;5069490;28;20044;-77
2022/03/07 01:27:08;;;;;;;29.67;14.02;;;;;;;0.50;61.17;96626.78;5070149;28;20049;-77
2022/03/07 01:29:36;;;;;;;28.52;14.32;;;;;;;0.48;61.35;96627.03;5069747;28;20056;-77
2022/03/07 01:32:03;;;;;;;24.30;14.05;;;;;;;0.41;61.25;96620.22;5071442;28;20057;-78
2022/03/07 01:34:29;;;;;;;20.33;12.98;;;;;;;0.41;60.68;96620.22;5071411;28;20045;-77
2022/03/07 01:36:56;;;;;;;59.33;14.10;;;;;;;0.27;60.42;96614.41;5071111;28;20510;-77
2022/03/07 01:39:24;;;;;;;45.42;12.35;;;;;;;0.28;60.19;96620.56;5069852;28;20051;-77
2022/03/07 01:41:50;;;;;;;68.78;13.20;;;;;;;0.32;60.32;96627.06;5069490;28;20044;-77
2022/03/07 01:44:18;;;;;;;58.60;12.45;;;;;;;0.33;60.06;96623.31;5070066;28;20576;-77
2022/03/07 01:46:47;;;;;;;72.88;12.70;;;;;;;0.30;60.32;96607.72;5069295;28;20048;-77
2022/03/07 01:49:17;;;;;;;60.35;12.88;;;;;;;0.30;59.90;96607.72;5070565;28;20040;-77
2022/03/07 01:51:45;;;;;;;44.25;11.95;;;;;;;0.36;59.79;96617.47;5069222;28;20047;-77
2022/03/07 01:54:14;;;;;;;80.53;12.52;;;;;;;0.17;59.87;96604.34;5069864;28;20041;-77
2022/03/07 01:56:42;;;;;;;50.75;11.48;;;;;;;0.25;60.34;96605.78;5069445;28;20041;-77
2022/03/07 01:59:11;;;;;;;93.80;12.07;;;;;;;0.25;60.08;96605.78;5069469;28;20064;-77
2022/03/07 02:01:38;;;;;;;44.47;10.82;;;;;;;0.20;59.12;96601.16;5070574;28;20071;-77
2022/03/07 02:04:07;;;;;;;72.45;12.93;;;;;;;0.15;58.81;96602.97;5069261;28;20403;-77
2022/03/07 02:06:36;;;;;;;69.28;10.80;;;;;;;0.13;58.81;96613.94;5070146;28;20040;-77
2022/03/07 02:09:03;;;;;;;59.22;10.85;;;;;;;0.10;58.84;96603.69;5068711;28;20048;-78
2022/03/07 02:11:29;;;;;;;50.03;10.05;;;;;;;0.18;59.05;96600.63;5070068;28;20037;-77
2022/03/07 02:13:56;;;;;;;42.85;10.20;;;;;;;0.24;58.73;96601.50;5069243;28;20036;-77
2022/03/07 02:16:22;;;;;;;56.33;10.90;;;;;;;0.29;58.60;96606.13;5069583;28;20499;-78
2022/03/07 02:18:49;;;;;;;51.10;9.93;;;;;;;0.38;59.08;96604.66;5069148;28;20071;-77
2022/03/07 02:21:19;;;;;;;77.68;11.43;;;;;;;0.38;58.07;96599.28;5069012;28;20044;-77
2022/03/07 02:23:47;;;;;;;34.13;10.25;;;;;;;0.20;57.79;96603.84;5069600;28;20617;-77
2022/03/07 02:26:15;;;;;;;56.95;10.93;;;;;;;0.23;57.57;96603.38;5068958;28;20048;-77
2022/03/07 02:28:42;;;;;;;21.08;9.60;;;;;;;0.22;57.35;96608.97;5070572;28;20496;-77
2022/03/07 02:31:10;;;;;;;15.27;8.93;;;;;;;0.21;57.31;96616.19;5073768;28;20056;-77
2022/03/07 02:33:37;;;;;;;15.07;8.90;;;;;;;0.20;57.47;96605.72;5073917;28;20054;-77
2022/03/07 02:36:05;;;;;;;15.10;8.55;;;;;;;0.21;56.93;96610.84;5068962;28;20419;-77
2022/03/07 02:38:31;;;;;;;20.45;10.55;;;;;;;0.19;57.21;96607.59;5069859;28;20040;-77
2022/03/07 02:40:59;;;;;;;16.42;9.30;;;;;;;0.14;57.29;96604.81;5068949;28;20051;-77
2022/03/07 02:43:25;;;;;;;19.77;10.07;;;;;;;0.12;57.41;96601.59;5069480;28;20052;-77
2022/03/07 02:45:52;;;;;;;16.45;8.88;;;;;;;0.11;57.65;96594.63;5070359;28;20044;-77
2022/03/07 02:48:19;;;;;;;17.77;9.35;;;;;;;0.14;57.27;96604.81;5068766;28;20056;-77
2022/03/07 02:50:46;;;;;;;14.23;8.73;;;;;;;0.12;56.70;96606.16;5069756;28;20110;-77
2022/03/07 02:53:12;;;;;;;13.85;8.77;;;;;;;0.12;56.71;96601.59;5068731;28;20105;-77
2022/03/07 02:55:39;;;;;;;19.35;9.80;;;;;;;0.09;56.84;96602.06;5070250;28;20487;-77
2022/03/07 02:58:07;;;;;;;15.32;8.82;;;;;;;-0.10;56.32;96601.53;5070331;28;20533;-76
2022/03/07 03:00:33;;;;;;;29.38;10.48;;;;;;;0.02;56.84;96606.00;5073778;28;20045;-77
2022/03/07 03:03:00;;;;;;;25.27;9.05;;;;;;;-0.08;56.45;96602.09;5072022;28;20044;-77
2022/03/07 03:05:27;;;;;;;11.32;7.95;;;;;;;-0.01;56.62;96604.59;5072232;28;20032;-78
2022/03/07 03:07:53;;;;;;;18.65;8.55;;;;;;;-0.01;56.06;96601.91;5072286;28;20055;-77
2022/03/07 03:10:20;;;;;;;18.85;9.55;;;;;;;-0.04;56.58;96615.81;5071858;28;20052;-76
2022/03/07 03:12:47;;;;;;;28.33;10.25;;;;;;;0.02;56.05;96612.16;5070488;28;20052;-77
2022/03/07 03:15:17;;;;;;;34.55;15.30;;;;;;;-0.07;55.59;96613.59;5071317;28;20048;-77
2022/03/07 03:17:44;;;;;;;13.23;7.47;;;;;;;-0.13;55.91;96614.59;5072393;28;20052;-76
2022/03/07 03:20:13;;;;;;;13.45;8.25;;;;;;;-0.08;56.22;96612.00;5070970;28;20052;-77
2022/03/07 03:22:40;;;;;;;15.20;8.45;;;;;;;-0.07;56.44;96616.28;5073067;28;20048;-78
2022/03/07 03:25:09;;;;;;;12.65;7.78;;;;;;;-0.15;55.93;96616.72;5071477;28;20052;-79
2022/03/07 03:27:36;;;;;;;12.07;7.80;;;;;;;-0.10;56.88;96620.28;5072496;28;20049;-77
2022/03/07 03:30:05;;;;;;;13.02;8.13;;;;;;;-0.11;56.66;96612.47;5072527;28;20044;-77
2022/03/07 03:32:33;;;;;;;16.88;8.57;;;;;;;-0.02;56.92;96614.50;5072404;28;20036;-77
2022/03/07 03:34:59;;;;;;;14.38;8.07;;;;;;;0.03;56.81;96608.41;5072494;28;20499;-77
2022/03/07 03:37:26;;;;;;;11.85;8.13;;;;;;;-0.02;56.23;96613.69;5071305;28;20083;-77
2022/03/07 03:39:53;;;;;;;15.32;9.13;;;;;;;-0.01;56.77;96609.94;5069320;28;20079;-77
2022/03/07 03:42:21;;;;;;;11.70;7.93;;;;;;;-0.03;57.00;96606.72;5070276;28;20051;-77
2022/03/07 03:44:48;;;;;;;15.35;8.95;;;;;;;-0.03;56.69;96604.84;5069678;28;20145;-77
2022/03/07 03:47:14;;;;;;;16.08;9.10;;;;;;;-0.04;56.22;96602.44;5066536;28;20045;-77
2022/03/07 03:49:42;;;;;;;25.02;9.43;;;;;;;-0.11;56.43;96601.75;5071445;28;20064;-77
2022/03/07 03:52:09;;;;;;;14.80;8.48;;;;;;;-0.12;56.15;96605.50;5070473;28;20041;-77
2022/03/07 03:54:36;;;;;;;13.20;8.20;;;;;;;-0.06;56.11;96605.31;5071147;28;20052;-78
2022/03/07 03:57:03;;;;;;;14.98;8.88;;;;;;;-0.02;56.50;96606.47;5070705;28;20301;-79
2022/03/07 03:59:31;;;;;;;16.88;9.68;;;;;;;0.04;56.42;96609.22;5070869;28;20052;-77
2022/03/07 04:01:58;;;;;;;44.03;10.68;;;;;;;-0.03;56.41;96607.53;5071511;28;20090;-77
2022/03/07 04:04:24;;;;;;;33.53;9.93;;;;;;;-0.02;56.32;96613.69;5070017;28;20044;-77
2022/03/07 04:06:52;;;;;;;46.35;10.82;;;;;;;-0.05;56.30;96622.22;5071435;28;20041;-77
2022/03/07 04:09:20;;;;;;;53.78;10.65;;;;;;;0.02;56.13;96617.50;5069075;28;20051;-77
2022/03/07 04:11:48;;;;;;;86.20;11.60;;;;;;;-0.02;56.33;96627.06;5069964;28;20193;-77
2022/03/07 04:14:15;;;;;;;32.03;8.93;;;;;;;0.03;56.04;96623.66;5067974;28;20048;-78
2022/03/07 04:16:42;;;;;;;46.63;9.63;;;;;;;0.08;55.91;96627.25;5070547;28;20037;-77
2022/03/07 04:19:10;;;;;;;32.90;10.70;;;;;;;0.14;56.09;96626.25;5070091;28;20076;-77
2022/03/07 04:21:38;;;;;;;19.65;9.68;;;;;;;0.14;56.36;96620.91;5070542;28;20056;-76
2022/03/07 04:24:07;;;;;;;17.67;8.93;;;;;;;0.11;56.45;96618.72;5070438;28;20455;-77
2022/03/07 04:26:34;;;;;;;28.45;10.88;;;;;;;0.15;56.38;96622.50;5070368;28;20472;-77
2022/03/07 04:29:01;;;;;;;44.83;10.52;;;;;;;0.20;56.60;96630.63;5072922;28;20045;-77
2022/03/07 04:31:27;;;;;;;15.07;9.38;;;;;;;0.22;56.27;96625.84;5073221;28;20045;-77
2022/03/07 04:33:54;;;;;;;15.50;9.43;;;;;;;0.23;56.83;96624.78;5071904;28;20048;-76
2022/03/07 04:36:20;;;;;;;18.10;11.10;;;;;;;0.26;56.97;96631.50;5069691;28;20059;-77
2022/03/07 04:38:47;;;;;;;16.52;9.82;;;;;;;0.24;56.24;96625.59;5071171;28;20049;-77
2022/03/07 04:41:15;;;;;;;18.65;10.38;;;;;;;0.20;56.34;96625.25;5069876;28;20044;-77
2022/03/07 04:43:41;;;;;;;33.33;10.40;;;;;;;0.18;56.63;96630.06;5070703;28;20052;-77
2022/03/07 04:46:09;;;;;;;19.80;9.98;;;;;;;0.15;56.29;96617.16;5069566;28;20119;-78
2022/03/07 04:48:36;;;;;;;48.58;11.65;;;;;;;-0.03;56.39;96626.28;5069866;28;20055;-77
2022/03/07 04:51:03;;;;;;;21.60;11.18;;;;;;;-0.01;56.30;96617.97;5070086;28;20094;-78
2022/03/07 04:53:29;;;;;;;16.48;9.13;;;;;;;-0.09;57.25;96621.09;5069536;28;20048;-77
2022/03/07 04:55:56;;;;;;;16.67;10.23;;;;;;;-0.04;57.37;96621.97;5070759;28;20455;-77
2022/03/07 04:58:23;;;;;;;61.45;10.60;;;;;;;-0.03;57.18;96630.81;5069687;28;20517;-77
2022/03/07 05:00:52;;;;;;;18.10;10.80;;;;;;;-0.06;57.04;96633.97;5070419;28;20048;-77
2022/03/07 05:03:18;;;;;;;29.15;12.77;;;;;;;-0.04;56.68;96637.22;5069450;28;20539;-77
2022/03/07 05:05:45;;;;;;;27.25;11.73;;;;;;;-0.01;57.27;96639.41;5070687;28;20503;-77
2022/03/07 05:08:12;;;;;;;20.73;9.85;;;;;;;-0.07;56.64;96645.72;5069678;28;20199;-77
2022/03/07 05:10:38;;;;;;;51.72;11.93;;;;;;;-0.04;57.74;96645.25;5069725;28;20143;-77
2022/03/07 05:13:05;;;;;;;42.60;11.27;;;;;;;-0.08;57.25;96644.94;5069779;28;20055;-77
2022/03/07 05:15:33;;;;;;;33.97;12.23;;;;;;;-0.25;57.34;96640.63;5069049;28;20491;-76
2022/03/07 05:17:59;;;;;;;50.95;14.15;;;;;;;-0.19;57.84;96643.13;5070020;28;20495;-77
2022/03/07 05:20:26;;;;;;;34.60;10.43;;;;;;;-0.13;57.79;96638.69;5068352;28;20049;-77
2022/03/07 05:22:53;;;;;;;63.83;11.88;;;;;;;-0.21;57.74;96639.88;5070297;28;20052;-77
2022/03/07 05:25:21;;;;;;;47.17;16.45;;;;;;;-0.29;58.33;96642.97;5068972;28;20076;-77
2022/03/07 05:27:48;;;;;;;73.18;12.20;;;;;;;-0.23;57.68;96644.66;5069941;28;20045;-77
2022/03/07 05:30:18;;;;;;;22.45;10.85;;;;;;;-0.26;57.40;96647.84;5069122;28;20487;-77
2022/03/07 05:32:47;;;;;;;54.08;12.30;;;;;;;-0.21;58.03;96644.41;5069161;28;20048;-77
2022/03/07 05:35:14;;;;;;;20.33;10.90;;;;;;;-0.21;58.04;96645.22;5069757;28;20055;-77
2022/03/07 05:37:41;;;;;;;33.28;11.95;;;;;;;-0.21;57.99;96639.06;5068913;28;20405;-77
2022/03/07 05:40:09;;;;;;;44.22;11.68;;;;;;;-0.24;57.56;96642.25;5069362;28;20043;-78
2022/03/07 05:42:38;;;;;;;18.00;10.95;;;;;;;-0.16;57.75;96647.19;5068847;28;20044;-76
2022/03/07 05:45:07;;;;;;;19.85;11.35;;;;;;;-0.09;57.67;96642.50;5069066;28;20044;-76
2022/03/07 05:47:34;;;;;;;20.60;11.65;;;;;;;-0.03;58.21;96647.69;5067929;28;20705;-77
2022/03/07 05:50:03;;;;;;;22.90;11.60;;;;;;;0.02;57.71;96648.81;5069251;28;20049;-77
2022/03/07 05:52:29;;;;;;;19.35;10.48;;;;;;;0.07;57.57;96651.59;5068956;28;20403;-76
2022/03/07 05:54:56;;;;;;;31.17;13.52;;;;;;;-0.12;58.23;96648.31;5068870;28;20063;-77
2022/03/07 05:57:22;;;;;;;34.08;12.60;;;;;;;-0.06;57.97;96647.34;5068852;28;20488;-77
2022/03/07 05:59:49;;;;;;;17.58;10.63;;;;;;;-0.04;58.63;96650.63;5068087;28;20078;-76
2022/03/07 06:02:15;;;;;;;69.38;12.25;;;;;;;-0.04;58.90;96650.63;5069116;28;20040;-77
2022/03/07 06:04:42;;;;;;;25.65;12.00;;;;;;;-0.12;58.06;96653.69;5068407;28;20045;-77
2022/03/07 06:07:10;;;;;;;21.90;11.95;;;;;;;-0.15;58.63;96648.84;5069253;28;20045;-79
2022/03/07 06:09:36;;;;;;;19.95;10.75;;;;;;;-0.13;58.69;96654.75;5069216;28;20048;-79
2022/03/07 06:12:03;;;;;;;34.15;11.73;;;;;;;-0.18;58.52;96655.47;5067109;28;20436;-79
2022/03/07 06:14:30;;;;;;;17.35;10.90;;;;;;;-0.16;59.19;96648.00;5068964;28;20049;-79
2022/03/07 06:16:56;;;;;;;42.92;12.23;;;;;;;-0.09;59.21;96655.88;5067350;28;20552;-79
2022/03/07 06:19:23;;;;;;;20.25;10.70;;;;;;;-0.10;58.36;96660.44;5067401;28;20056;-81
2022/03/07 06:21:49;;;;;;;39.88;12.88;;;;;;;-0.07;58.73;96672.50;5067337;28;20056;-79
2022/03/07 06:24:17;;;;;;;28.13;13.40;;;;;;;-0.11;59.76;96660.66;5069153;28;20059;-78
2022/03/07 06:26:44;;;;;;;20.63;12.18;;;;;;;-0.10;59.45;96667.66;5070351;28;20052;-79
2022/03/07 06:29:11;;;;;;;48.17;12.90;;;;;;;-0.09;59.71;96670.06;5070156;28;20053;-79
2022/03/07 06:31:38;;;;;;;28.50;12.30;;;;;;;-0.21;59.22;96677.34;5069406;28;20078;-79
2022/03/07 06:34:04;;;;;;;44.00;16.52;;;;;;;-0.31;59.55;96671.84;5070585;28;20511;-79
2022/03/07 06:36:31;;;;;;;23.58;11.55;;;;;;;-0.39;59.98;96675.72;5071093;28;20051;-78
2022/03/07 06:38:58;;;;;;;50.58;13.35;;;;;;;-0.29;60.51;96683.09;5071818;28;20052;-79
2022/03/07 06:41:26;;;;;;;31.58;13.13;;;;;;;-0.24;60.37;96682.38;5070519;28;20503;-79
2022/03/07 06:43:52;;;;;;;24.40;12.80;;;;;;;-0.20;59.96;96681.66;5071001;28;20048;-79
2022/03/07 06:46:19;;;;;;;35.85;14.15;;;;;;;-0.20;60.08;96678.19;5070366;28;20044;-78
2022/03/07 06:48:45;;;;;;;39.13;13.43;;;;;;;-0.27;60.03;96673.78;5070507;28;20045;-79
2022/03/07 06:51:12;;;;;;;50.30;14.13;;;;;;;-0.28;60.19;96669.47;5070356;28;20570;-79
2022/03/07 06:53:38;;;;;;;36.42;14.43;;;;;;;-0.15;60.94;96675.59;5071116;28;20392;-79
2022/03/07 06:56:05;;;;;;;27.65;13.48;;;;;;;-0.08;60.51;96662.84;5071571;28;20062;-80
2022/03/07 06:58:33;;;;;;;24.02;12.90;;;;;;;-0.09;59.29;96675.44;5072248;28;20139;-80
2022/03/07 07:00:59;;;;;;;27.50;13.45;;;;;;;-0.05;59.26;96681.94;5071030;28;20059;-79
2022/03/07 07:03:26;;;;;;;44.50;16.13;;;;;;;0.01;59.39;96679.34;5070496;28;20048;-78
2022/03/07 07:05:52;;;;;;;60.38;14.93;;;;;;;0.02;59.13;96673.72;5070851;28;20056;-79
2022/03/07 07:08:19;;;;;;;31.02;12.93;;;;;;;0.11;60.43;96677.63;5070314;28;20515;-80
2022/03/07 07:10:46;;;;;;;49.97;13.77;;;;;;;0.12;59.49;96673.09;5071010;28;20048;-79
2022/03/07 07:13:14;;;;;;;58.90;16.08;;;;;;;0.27;59.63;96683.25;5070961;28;20047;-80
2022/03/07 07:15:42;;;;;;;56.97;15.02;;;;;;;0.33;58.42;96668.84;5076903;28;20498;-79
2022/03/07 07:18:08;;;;;;;68.43;19.90;;;;;;;0.33;58.24;96674.22;5050462;28;20045;-79
2022/03/07 07:20:36;;;;;;;28.92;13.95;;;;;;;0.38;58.04;96680.47;5050015;28;20060;-80
2022/03/07 07:23:02;;;;;;;85.10;15.15;;;;;;;0.41;58.44;96679.16;5050119;28;20792;-79
2022/03/07 07:25:29;;;;;;;71.68;15.05;;;;;;;0.50;59.85;96683.03;5049216;28;20048;-79
2022/03/07 07:27:55;;;;;;;23.42;14.60;;;;;;;0.50;57.79;96688.41;5049986;28;20060;-80
2022/03/07 07:30:23;;;;;;;26.35;14.68;;;;;;;0.55;57.27;96691.16;5056718;28;20700;-77
2022/03/07 07:32:51;;;;;;;28.02;14.70;;;;;;;0.64;57.34;96696.91;5069388;28;20101;-79
2022/03/07 07:35:17;;;;;;;156.43;20.73;;;;;;;0.52;58.14;96697.00;5065401;28;20053;-78
2022/03/07 07:37:44;;;;;;;80.57;16.90;;;;;;;0.61;58.57;96695.53;5049165;28;20057;-78
2022/03/07 07:40:11;;;;;;;74.90;18.63;;;;;;;0.62;57.64;96702.50;5049232;28;20064;-78
2022/03/07 07:42:38;;;;;;;56.03;15.57;;;;;;;0.75;57.57;96710.22;5049526;28;20045;-78
2022/03/07 07:45:05;;;;;;;87.38;16.23;;;;;;;0.74;57.41;96711.28;5049481;28;20045;-81
2022/03/07 07:47:31;;;;;;;71.82;16.17;;;;;;;0.77;58.29;96715.31;5050151;28;20048;-79
2022/03/07 07:49:59;;;;;;;103.63;18.60;;;;;;;0.92;58.20;96714.72;5049172;28;20065;-79
2022/03/07 07:52:26;;;;;;;33.33;15.80;;;;;;;0.96;57.32;96715.84;5066927;28;20048;-80
2022/03/07 07:54:52;;;;;;;27.08;15.55;;;;;;;0.95;56.92;96723.09;5049278;28;20041;-78
2022/03/07 07:57:19;;;;;;;28.90;15.13;;;;;;;1.06;57.34;96734.75;5049855;28;20057;-79
2022/03/07 07:59:46;;;;;;;34.92;15.70;;;;;;;1.05;56.94;96743.88;5054336;28;20060;-78
2022/03/07 08:02:12;;;;;;;33.78;15.77;;;;;;;1.11;56.33;96742.88;5069202;28;20130;-80
2022/03/07 08:04:39;;;;;;;37.08;16.02;;;;;;;1.19;56.01;96745.13;5068865;28;20065;-80
2022/03/07 08:07:07;;;;;;;37.80;16.30;;;;;;;1.26;56.24;96739.59;5070156;28;20048;-80
2022/03/07 08:09:35;;;;;;;32.60;15.75;;;;;;;1.40;55.64;96745.38;5069264;28;20404;-79
2022/03/07 08:12:01;;;;;;;43.55;16.70;;;;;;;1.49;54.60;96747.38;5069597;28;20131;-79
2022/03/07 08:14:28;;;;;;;27.20;15.43;;;;;;;1.47;55.23;96748.69;5068652;28;20415;-81
2022/03/07 08:16:54;;;;;;;50.42;17.15;;;;;;;1.51;54.24;96753.31;5068917;28;20044;-79
2022/03/07 08:19:21;;;;;;;37.63;17.00;;;;;;;1.45;55.07;96759.66;5068135;28;20056;-80
2022/03/07 08:21:47;;;;;;;47.85;17.40;;;;;;;1.54;54.32;96758.16;5069186;28;20049;-79
2022/03/07 08:24:15;;;;;;;37.70;17.38;;;;;;;1.48;53.89;96761.03;5070645;28;20048;-78
2022/03/07 08:26:42;;;;;;;35.47;16.25;;;;;;;1.61;55.12;96759.84;5070085;28;20127;-79
2022/03/07 08:29:08;;;;;;;49.17;17.65;;;;;;;1.69;55.04;96765.59;5069128;28;20051;-79
2022/03/07 08:31:35;;;;;;;26.90;14.88;;;;;;;1.65;53.98;96769.03;5068114;28;20056;-78
2022/03/07 08:34:01;;;;;;;27.58;15.57;;;;;;;1.61;55.44;96766.03;5068771;28;20489;-80
2022/03/07 08:36:29;;;;;;;31.30;16.92;;;;;;;1.66;53.94;96771.44;5067514;28;20032;-80
2022/03/07 08:38:55;;;;;;;30.42;17.27;;;;;;;1.75;54.82;96775.31;5067778;28;20567;-80
2022/03/07 08:41:23;;;;;;;26.38;15.63;;;;;;;1.73;54.10;96780.13;5067276;28;20053;-78
2022/03/07 08:43:51;;;;;;;38.20;17.08;;;;;;;1.87;56.66;96783.22;5067810;28;20048;-79
2022/03/07 08:46:18;;;;;;;31.40;15.93;;;;;;;1.73;54.22;96782.81;5067133;28;20056;-79
2022/03/07 08:48:45;;;;;;;28.20;15.88;;;;;;;1.88;53.16;96784.03;5067254;28;20055;-79
2022/03/07 08:51:11;;;;;;;47.20;17.42;;;;;;;2.00;54.02;96782.03;5067935;28;20044;-80
2022/03/07 08:53:38;;;;;;;40.35;17.13;;;;;;;2.13;53.83;96784.31;5067572;28;20056;-79
2022/03/07 08:56:05;;;;;;;36.05;16.83;;;;;;;2.15;52.71;96782.19;5067180;28;20055;-81
2022/03/07 08:58:33;;;;;;;45.25;16.70;;;;;;;2.13;52.98;96784.31;5067428;28;20044;-80
2022/03/07 09:00:59;;;;;;;77.80;16.80;;;;;;;2.21;52.48;96786.56;5067910;28;20049;-80
2022/03/07 09:03:26;;;;;;;50.35;17.45;;;;;;;2.35;52.89;96785.09;5067407;28;20044;-80
2022/03/07 09:05:52;;;;;;;76.30;16.50;;;;;;;2.45;50.94;96788.91;5066473;28;20633;-78
2022/03/07 09:08:19;;;;;;;31.27;16.17;;;;;;;2.53;50.60;96791.94;5067115;28;20079;-80
2022/03/07 09:10:45;;;;;;;31.95;16.45;;;;;;;2.45;51.32;96789.72;5066985;28;20041;-79
2022/03/07 09:13:12;;;;;;;40.85;18.73;;;;;;;2.32;53.29;96790.16;5067289;28;20066;-80
2022/03/07 09:15:42;;;;;;;35.53;17.13;;;;;;;2.35;51.17;96787.78;5067273;28;20411;-79
2022/03/07 09:18:09;;;;;;;32.38;16.60;;;;;;;2.45;53.79;96789.72;5067251;28;20051;-80
2022/03/07 09:20:35;;;;;;;40.75;17.83;;;;;;;2.54;51.61;96798.13;5068023;28;20052;-80
2022/03/07 09:23:02;;;;;;;57.00;17.33;;;;;;;2.59;50.70;96801.69;5067994;28;20044;-79
2022/03/07 09:25:28;;;;;;;43.88;18.23;;;;;;;2.69;51.72;96792.88;5067506;28;20491;-79
2022/03/07 09:27:55;;;;;;;49.17;18.73;;;;;;;2.53;51.32;96799.22;5067555;28;20045;-79
2022/03/07 09:30:21;;;;;;;46.63;17.30;;;;;;;2.59;51.72;96800.88;5067838;28;20055;-78
2022/03/07 09:32:49;;;;;;;30.20;16.48;;;;;;;2.70;53.04;96801.75;5066316;28;20062;-78
2022/03/07 09:35:16;;;;;;;28.83;16.85;;;;;;;2.86;51.87;96811.56;5076404;28;20053;-78
2022/03/07 09:37:43;;;;;;;42.50;17.45;;;;;;;2.92;50.96;96809.72;5066990;28;20052;-78
2022/03/07 09:40:11;;;;;;;66.82;20.15;;;;;;;2.92;50.08;96809.72;5067502;28;20082;-79
2022/03/07 09:42:37;;;;;;;41.13;17.33;;;;;;;2.80;50.43;96818.78;5066476;28;20059;-80
2022/03/07 09:45:05;;;;;;;30.73;17.23;;;;;;;2.79;49.64;96822.56;5067906;28;20056;-79
2022/03/07 09:47:33;;;;;;;32.60;17.98;;;;;;;2.76;49.39;96823.06;5067088;28;20048;-78
2022/03/07 09:50:01;;;;;;;30.65;17.00;;;;;;;2.74;49.49;96825.19;5067427;28;20049;-79
2022/03/07 09:52:28;;;;;;;31.38;17.17;;;;;;;2.62;48.65;96824.56;5067726;28;20044;-79
2022/03/07 09:54:54;;;;;;;28.70;16.60;;;;;;;2.66;49.77;96828.34;5067154;28;20049;-79
2022/03/07 09:57:21;;;;;;;27.10;16.95;;;;;;;2.74;49.19;96830.56;5068162;28;20053;-79
2022/03/07 09:59:48;;;;;;;30.52;17.33;;;;;;;2.60;49.77;96837.44;5070593;28;20045;-79
2022/03/07 10:02:19;;;;;;;42.13;17.65;;;;;;;2.43;49.35;96845.63;5072544;28;20075;-78
2022/03/07 10:04:46;;;;;;;29.45;17.73;;;;;;;2.38;49.72;96836.69;5069628;28;20052;-79
2022/03/07 10:07:15;;;;;;;29.13;17.30;;;;;;;2.26;48.98;96834.97;5070290;28;20055;-79
2022/03/07 10:09:42;;;;;;;64.03;19.45;;;;;;;2.27;50.86;96841.16;5073494;28;20048;-78
2022/03/07 10:12:09;;;;;;;65.28;23.77;;;;;;;2.25;50.35;96838.72;5071426;28;20055;-78
2022/03/07 10:14:42;;;;;;;57.92;19.67;;;;;;;2.23;51.54;96846.22;5070354;28;20048;-79
2022/03/07 10:17:17;;;;;;;60.58;20.92;;;;;;;2.15;52.01;96844.00;5070541;28;20435;-80
2022/03/07 10:19:44;;;;;;;57.17;17.88;;;;;;;2.06;51.61;96842.81;5071433;28;20063;-78
2022/03/07 10:22:21;;;;;;;49.70;20.38;;;;;;;2.01;51.47;96848.13;5069842;28;20056;-78
2022/03/07 10:24:48;;;;;;;32.50;18.25;;;;;;;1.81;51.93;96852.19;5071114;28;20522;-78
2022/03/07 10:27:25;;;;;;;39.83;18.67;;;;;;;1.63;52.21;96855.19;5070372;28;20053;-79
2022/03/07 10:29:52;;;;;;;34.33;19.70;;;;;;;1.41;51.96;96854.31;5072434;28;20079;-78
2022/03/07 10:32:19;;;;;;;34.38;18.55;;;;;;;1.47;52.79;96861.41;5072782;28;20044;-78
2022/03/07 10:34:46;;;;;;;86.45;17.33;;;;;;;1.53;50.67;96857.72;5071694;28;20423;-79
2022/03/07 10:37:13;;;;;;;39.10;18.05;;;;;;;1.58;51.29;96854.31;5071004;28;20566;-79
2022/03/07 10:39:46;;;;;;;61.08;18.42;;;;;;;1.57;50.35;96856.19;5069932;28;20049;-79
2022/03/07 10:42:16;;;;;;;90.25;19.90;;;;;;;1.55;49.80;96856.41;5070468;28;20052;-78
2022/03/07 10:44:43;;;;;;;60.20;19.40;;;;;;;1.38;50.73;96855.66;5069760;28;20052;-79
2022/03/07 10:47:14;;;;;;;77.97;19.73;;;;;;;1.46;50.62;96849.03;5070488;28;20052;-79
2022/03/07 10:49:49;;;;;;;83.50;20.40;;;;;;;1.51;50.46;96849.09;5070026;28;20055;-79
2022/03/07 10:52:16;;;;;;;92.65;21.00;;;;;;;1.56;50.09;96851.84;5069359;28;20048;-78
2022/03/07 10:54:43;;;;;;;82.28;18.75;;;;;;;1.66;50.27;96846.63;5069890;28;20048;-77
2022/03/07 10:57:11;;;;;;;94.43;20.05;;;;;;;1.63;49.99;96847.13;5069407;28;20052;-79
2022/03/07 10:59:38;;;;;;;61.28;17.90;;;;;;;1.66;49.83;96846.63;5069689;28;20537;-79
2022/03/07 11:02:09;;;;;;;98.97;19.58;;;;;;;1.56;49.62;96841.91;5068522;28;20049;-78
2022/03/07 11:04:37;;;;;;;72.68;19.27;;;;;;;1.65;48.86;96847.69;5070397;28;20503;-79
2022/03/07 11:07:04;;;;;;;77.47;18.00;;;;;;;1.73;48.81;96849.94;5069124;28;20044;-78
2022/03/07 11:09:31;;;;;;;68.65;18.98;;;;;;;1.66;48.69;96852.00;5070392;28;20059;-78
2022/03/07 11:11:57;;;;;;;57.45;18.30;;;;;;;1.73;47.83;96841.91;5070300;28;20056;-79
2022/03/07 11:14:27;;;;;;;76.15;18.67;;;;;;;1.83;48.06;96847.38;5069446;28;20119;-78
2022/03/07 11:16:56;;;;;;;58.08;17.35;;;;;;;1.93;48.28;96852.06;5070281;28;20298;-79
2022/03/07 11:19:24;;;;;;;74.10;16.52;;;;;;;1.96;46.94;96845.38;5069175;28;20068;-79
2022/03/07 11:21:52;;;;;;;50.65;17.52;;;;;;;1.97;46.08;96841.63;5072204;28;20048;-78
2022/03/07 11:24:20;;;;;;;65.40;19.00;;;;;;;2.03;46.58;96841.41;5071472;28;20053;-78